Time;durP1;ratioP1;P1;durP2;ratioP2;P2;SDS_P1;SDS_P2;PMS_P1;PMS_P2;Temp;Humidity;BMP_temperature;BMP_pressure;BME280_temperature;BME280_humidity;BME280_pressure;Samples;Min_cycle;Max_cycle;Signal;HPM_P1;HPM_P2
2023/07/01 00:00:26;;;;;;;6.13;3.00;;;;;;;21.29;61.76;100776.50;5030071;28;20061;-44
2023/07/01 00:02:52;;;;;;;7.20;3.25;;;;;;;20.80;63.59;100779.78;5031951;28;20091;-46
2023/07/01 00:05:19;;;;;;;6.05;3.30;;;;;;;21.02;63.59;100767.63;5031635;28;20021;-44
2023/07/01 00:07:44;;;;;;;4.88;2.92;;;;;;;20.93;64.51;100770.53;5031206;28;20032;-44
2023/07/01 00:10:09;;;;;;;5.93;3.10;;;;;;;20.45;66.54;100764.91;5031474;28;20408;-44
2023/07/01 00:12:35;;;;;;;7.45;3.10;;;;;;;20.77;65.97;100769.28;5031277;28;20164;-45
2023/07/01 00:15:00;;;;;;;6.53;3.20;;;;;;;20.75;66.03;100760.50;5031503;28;20034;-44
2023/07/01 00:17:25;;;;;;;7.78;3.15;;;;;;;20.70;66.58;100751.81;5030491;28;20033;-48
2023/07/01 00:19:52;;;;;;;8.02;3.40;;;;;;;20.71;66.61;100750.91;5030104;28;20029;-49
2023/07/01 00:22:17;;;;;;;5.57;3.45;;;;;;;20.61;67.58;100737.09;5031116;28;20041;-51
2023/07/01 00:24:42;;;;;;;11.57;3.53;;;;;;;20.75;67.14;100739.31;5031410;28;20041;-44
2023/07/01 00:27:07;;;;;;;5.93;3.80;;;;;;;20.47;67.90;100728.69;5032556;28;20040;-44
2023/07/01 00:29:33;;;;;;;6.75;3.92;;;;;;;20.71;67.27;100727.06;5034572;28;20033;-44
2023/07/01 00:31:58;;;;;;;6.97;4.05;;;;;;;20.70;66.98;100718.25;5033044;28;20108;-43
2023/07/01 00:34:24;;;;;;;7.65;4.10;;;;;;;20.54;67.24;100711.69;5030981;28;20373;-48
2023/07/01 00:36:49;;;;;;;5.72;4.22;;;;;;;20.42;67.95;100718.22;5030345;28;20049;-47
2023/07/01 00:39:14;;;;;;;8.10;4.22;;;;;;;20.55;67.00;100708.13;5030832;28;20075;-46
2023/07/01 00:41:39;;;;;;;7.75;3.95;;;;;;;20.70;66.70;100710.31;5031266;28;20033;-44
2023/07/01 00:44:05;;;;;;;9.93;4.38;;;;;;;20.49;67.18;100701.22;5031353;28;20088;-47
2023/07/01 00:46:32;;;;;;;8.90;4.05;;;;;;;20.76;66.91;100707.47;5030907;28;20049;-47
2023/07/01 00:49:00;;;;;;;9.52;4.70;;;;;;;20.56;67.18;100710.72;5030858;28;20499;-43
2023/07/01 00:51:26;;;;;;;7.78;3.78;;;;;;;20.77;66.68;100708.34;5030637;28;20361;-45
2023/07/01 00:53:51;;;;;;;7.10;3.80;;;;;;;20.99;66.16;100712.03;5031158;28;20380;-44
2023/07/01 00:56:16;;;;;;;8.82;3.97;;;;;;;20.82;66.34;100709.06;5030503;28;20033;-47
2023/07/01 00:58:42;;;;;;;9.65;4.25;;;;;;;20.67;66.82;100696.31;5030565;28;20542;-46
2023/07/01 01:01:13;;;;;;;7.95;4.00;;;;;;;20.85;65.99;100693.94;5030818;28;20029;-44
2023/07/01 01:04:00;;;;;;;7.70;4.40;;;;;;;20.72;66.76;100694.38;5030603;28;20461;-44
2023/07/01 01:06:36;;;;;;;7.32;4.05;;;;;;;20.80;66.32;100690.53;5030820;28;20091;-48
2023/07/01 01:09:03;;;;;;;7.65;4.60;;;;;;;20.71;66.46;100685.56;5031067;28;20033;-49
2023/07/01 01:11:31;;;;;;;8.38;4.82;;;;;;;20.78;66.15;100681.81;5030097;28;20052;-43
2023/07/01 01:14:02;;;;;;;8.82;4.80;;;;;;;20.66;66.33;100674.25;5030785;28;20092;-46
2023/07/01 01:16:28;;;;;;;8.75;5.10;;;;;;;20.60;66.86;100669.13;5030158;28;20045;-43
2023/07/01 01:18:54;;;;;;;6.63;4.82;;;;;;;20.70;66.35;100670.56;5030078;28;20124;-45
2023/07/01 01:21:20;;;;;;;6.30;4.25;;;;;;;20.85;65.78;100662.16;5030018;28;20514;-44
2023/07/01 01:23:55;;;;;;;8.20;4.70;;;;;;;20.66;66.38;100655.69;5028875;28;20082;-48
2023/07/01 01:26:26;;;;;;;8.18;4.75;;;;;;;20.94;65.99;100658.31;5030114;28;20045;-45
2023/07/01 01:28:52;;;;;;;10.73;5.18;;;;;;;20.77;66.88;100642.97;5030093;28;20488;-45
2023/07/01 01:31:19;;;;;;;6.95;4.60;;;;;;;20.91;66.35;100640.75;5030041;28;20034;-45
2023/07/01 01:33:45;;;;;;;9.77;4.75;;;;;;;20.69;67.08;100634.38;5030248;28;20037;-45
2023/07/01 01:36:30;;;;;;;7.03;4.78;;;;;;;20.92;66.80;100628.38;5030225;28;20561;-43
2023/07/01 01:39:05;;;;;;;10.48;4.80;;;;;;;20.94;66.57;100627.38;5029457;28;20112;-46
2023/07/01 01:41:48;;;;;;;7.63;4.90;;;;;;;21.02;66.48;100621.84;5029589;28;20052;-46
2023/07/01 01:44:22;;;;;;;7.35;4.70;;;;;;;20.93;66.84;100615.03;5030173;28;20602;-45
2023/07/01 01:46:48;;;;;;;8.50;4.65;;;;;;;20.91;66.68;100616.03;5030087;28;20036;-43
2023/07/01 01:49:14;;;;;;;9.27;4.50;;;;;;;20.95;66.83;100612.34;5030865;28;20504;-43
2023/07/01 01:51:41;;;;;;;8.00;4.57;;;;;;;21.03;66.60;100612.97;5030118;28;20419;-43
2023/07/01 01:54:09;;;;;;;7.20;4.65;;;;;;;21.09;66.24;100618.06;5029962;28;20026;-43
2023/07/01 01:56:36;;;;;;;6.95;4.53;;;;;;;21.17;66.03;100618.69;5029381;28;20042;-47
2023/07/01 01:59:02;;;;;;;6.57;4.82;;;;;;;20.89;67.06;100615.19;5029257;28;20033;-47
2023/07/01 02:01:27;;;;;;;11.50;5.28;;;;;;;20.94;67.00;100614.13;5029001;28;20038;-47
2023/07/01 02:03:53;;;;;;;6.47;5.03;;;;;;;20.91;67.08;100608.94;5029344;28;20049;-43
2023/07/01 02:06:18;;;;;;;9.43;5.30;;;;;;;20.72;67.92;100609.59;5029363;28;20033;-46
2023/07/01 02:08:43;;;;;;;10.73;5.13;;;;;;;21.09;66.93;100604.81;5029311;28;20033;-44
2023/07/01 02:11:09;;;;;;;6.10;5.30;;;;;;;21.02;66.82;100598.84;5028550;28;20056;-48
2023/07/01 02:13:34;;;;;;;6.25;5.28;;;;;;;20.95;68.00;100599.09;5029500;28;20452;-49
2023/07/01 02:16:00;;;;;;;8.25;5.45;;;;;;;20.83;68.23;100594.22;5029640;28;20435;-47
2023/07/01 02:18:25;;;;;;;8.27;5.70;;;;;;;20.86;68.64;100592.31;5028524;28;20041;-44
2023/07/01 02:20:50;;;;;;;6.43;5.40;;;;;;;20.96;68.66;100590.25;5029767;28;20044;-47
2023/07/01 02:23:15;;;;;;;7.32;5.65;;;;;;;20.73;69.76;100590.13;5029607;28;20056;-46
2023/07/01 02:25:42;;;;;;;7.78;5.68;;;;;;;20.73;69.97;100593.66;5030051;28;20061;-46
2023/07/01 02:28:07;;;;;;;7.97;5.60;;;;;;;20.79;69.96;100587.28;5030961;28;20116;-44
2023/07/01 02:30:34;;;;;;;7.05;5.15;;;;;;;20.61;70.70;100578.16;5030059;28;20500;-48
2023/07/01 02:33:00;;;;;;;7.93;5.10;;;;;;;20.54;70.78;100582.78;5031981;28;20040;-46
2023/07/01 02:35:25;;;;;;;7.43;4.88;;;;;;;20.71;70.39;100579.59;5031496;28;20038;-44
2023/07/01 02:37:50;;;;;;;6.90;5.00;;;;;;;20.55;71.12;100581.00;5031620;28;20091;-43
2023/07/01 02:40:16;;;;;;;8.18;5.28;;;;;;;20.67;71.09;100577.09;5031548;28;20029;-43
2023/07/01 02:42:41;;;;;;;7.82;4.80;;;;;;;20.61;71.12;100571.06;5029924;28;20103;-44
2023/07/01 02:45:07;;;;;;;8.90;4.68;;;;;;;20.85;70.61;100574.72;5029429;28;20389;-44
2023/07/01 02:47:32;;;;;;;7.80;4.90;;;;;;;20.81;70.46;100567.75;5029214;28;20038;-43
2023/07/01 02:49:58;;;;;;;9.27;4.93;;;;;;;20.81;70.60;100569.53;5029843;28;20079;-46
2023/07/01 02:52:23;;;;;;;5.80;5.03;;;;;;;20.30;72.59;100562.34;5029577;28;20037;-45
2023/07/01 02:54:49;;;;;;;7.18;5.03;;;;;;;20.69;71.27;100567.28;5029769;28;20088;-45
2023/07/01 02:57:14;;;;;;;5.95;4.88;;;;;;;20.86;70.62;100562.31;5029728;28;20049;-48
2023/07/01 02:59:39;;;;;;;8.70;5.50;;;;;;;20.80;71.19;100557.22;5029202;28;20029;-43
2023/07/01 03:02:06;;;;;;;8.63;5.22;;;;;;;20.65;71.80;100555.94;5033066;28;20044;-43
2023/07/01 03:04:32;;;;;;;8.43;5.80;;;;;;;20.47;72.62;100559.19;5032458;28;20117;-45
2023/07/01 03:06:58;;;;;;;8.52;5.78;;;;;;;20.65;71.97;100562.13;5032566;28;20034;-43
2023/07/01 03:09:23;;;;;;;8.50;5.45;;;;;;;20.74;71.94;100562.75;5032246;28;20040;-43
2023/07/01 03:11:49;;;;;;;7.75;5.60;;;;;;;20.70;71.97;100554.00;5032802;28;20043;-47
2023/07/01 03:14:15;;;;;;;8.38;5.63;;;;;;;20.60;72.46;100545.50;5032702;28;20038;-48
2023/07/01 03:16:41;;;;;;;7.35;5.30;;;;;;;20.70;72.32;100551.34;5032218;28;20041;-46
2023/07/01 03:19:07;;;;;;;7.18;5.32;;;;;;;20.81;71.64;100538.63;5032271;28;20461;-47
2023/07/01 03:21:33;;;;;;;7.22;5.57;;;;;;;20.86;71.73;100533.19;5032529;28;20057;-45
2023/07/01 03:23:59;;;;;;;8.52;5.75;;;;;;;20.66;72.59;100531.19;5032724;28;20088;-43
2023/07/01 03:26:24;;;;;;;7.68;5.60;;;;;;;20.71;72.54;100523.97;5032553;28;20128;-43
2023/07/01 03:28:50;;;;;;;8.30;5.53;;;;;;;20.63;73.03;100523.34;5032474;28;20376;-45
2023/07/01 03:31:16;;;;;;;6.68;5.47;;;;;;;20.71;72.84;100523.97;5032816;28;20067;-50
2023/07/01 03:33:41;;;;;;;9.00;5.45;;;;;;;20.59;73.39;100527.00;5032531;28;20037;-44
2023/07/01 03:36:06;;;;;;;11.05;5.60;;;;;;;20.40;74.02;100518.81;5032598;28;20041;-45
2023/07/01 03:38:32;;;;;;;8.52;5.45;;;;;;;20.60;73.80;100515.50;5031777;28;20072;-47
2023/07/01 03:40:57;;;;;;;7.70;5.22;;;;;;;20.75;73.36;100514.09;5032322;28;20033;-45
2023/07/01 03:43:22;;;;;;;7.03;5.20;;;;;;;20.56;73.68;100509.44;5031776;28;20042;-43
2023/07/01 03:45:48;;;;;;;6.82;5.13;;;;;;;20.78;73.48;100506.06;5032096;28;20040;-44
2023/07/01 03:48:13;;;;;;;7.45;5.10;;;;;;;20.72;73.44;100511.56;5031816;28;20049;-47
2023/07/01 03:50:38;;;;;;;6.45;4.93;;;;;;;20.86;73.05;100491.63;5032526;28;20036;-47
2023/07/01 03:53:05;;;;;;;8.70;5.20;;;;;;;20.84;73.45;100500.56;5033336;28;20034;-44
2023/07/01 03:55:30;;;;;;;7.72;5.20;;;;;;;20.75;73.46;100493.78;5032788;28;20087;-45
2023/07/01 03:57:55;;;;;;;6.85;5.20;;;;;;;20.72;74.18;100493.91;5033000;28;20034;-44
2023/07/01 04:00:21;;;;;;;6.65;5.25;;;;;;;20.60;74.09;100499.63;5032602;28;20074;-45
2023/07/01 04:02:48;;;;;;;7.75;5.25;;;;;;;20.70;73.76;100489.56;5032985;28;20040;-46
2023/07/01 04:05:13;;;;;;;7.45;5.85;;;;;;;20.70;74.27;100486.91;5033047;28;20029;-46
2023/07/01 04:07:40;;;;;;;7.47;5.75;;;;;;;20.89;73.64;100482.72;5032460;28;20030;-47
2023/07/01 04:10:06;;;;;;;7.28;5.63;;;;;;;20.96;73.50;100482.44;5034315;28;20072;-46
2023/07/01 04:12:35;;;;;;;9.45;6.65;;;;;;;20.78;73.93;100480.44;5033578;28;20041;-44
2023/07/01 04:15:01;;;;;;;8.93;6.68;;;;;;;20.79;74.20;100483.97;5033873;28;20052;-45
2023/07/01 04:17:28;;;;;;;8.45;6.53;;;;;;;20.93;73.75;100482.53;5032369;28;20555;-45
2023/07/01 04:19:53;;;;;;;9.73;6.80;;;;;;;20.77;74.28;100481.34;5033534;28;20476;-45
2023/07/01 04:22:23;;;;;;;8.77;6.72;;;;;;;20.86;74.05;100482.84;5031813;28;20103;-47
2023/07/01 04:24:48;;;;;;;8.75;6.50;;;;;;;21.09;73.25;100477.59;5031256;28;20029;-46
2023/07/01 04:27:13;;;;;;;9.00;6.72;;;;;;;20.99;73.74;100474.38;5030970;28;20045;-44
2023/07/01 04:29:39;;;;;;;9.18;7.00;;;;;;;20.93;74.16;100468.44;5031120;28;20036;-42
2023/07/01 04:32:04;;;;;;;8.88;6.78;;;;;;;20.98;73.89;100472.63;5031346;28;20124;-49
2023/07/01 04:34:30;;;;;;;9.50;6.72;;;;;;;20.76;74.77;100468.16;5030793;28;20117;-46
2023/07/01 04:36:55;;;;;;;8.45;6.38;;;;;;;20.45;76.10;100465.69;5030660;28;20128;-44
2023/07/01 04:39:23;;;;;;;8.70;6.20;;;;;;;20.82;75.18;100462.66;5030816;28;20067;-49
2023/07/01 04:41:48;;;;;;;10.48;6.97;;;;;;;20.69;75.73;100464.84;5030817;28;20075;-45
2023/07/01 04:44:14;;;;;;;8.68;6.80;;;;;;;20.88;74.95;100462.44;5031686;28;20037;-43
2023/07/01 04:46:39;;;;;;;9.40;6.70;;;;;;;20.97;74.75;100470.06;5031082;28;20373;-43
2023/07/01 04:49:05;;;;;;;8.63;6.75;;;;;;;20.70;76.14;100463.94;5030921;28;20116;-43
2023/07/01 04:51:31;;;;;;;9.88;7.10;;;;;;;20.79;75.25;100463.63;5030845;28;20176;-43
2023/07/01 04:53:56;;;;;;;10.48;6.95;;;;;;;20.86;75.05;100461.63;5031140;28;20044;-43
2023/07/01 04:56:23;;;;;;;10.45;7.53;;;;;;;20.80;75.34;100460.03;5030778;28;20041;-42
2023/07/01 04:58:50;;;;;;;10.20;7.18;;;;;;;20.72;76.39;100456.81;5030264;28;20041;-48
2023/07/01 05:01:15;;;;;;;9.60;6.78;;;;;;;20.90;75.56;100457.94;5030701;28;20553;-48
2023/07/01 05:03:40;;;;;;;9.63;7.35;;;;;;;21.18;74.45;100450.75;5030527;28;20033;-45
2023/07/01 05:06:06;;;;;;;9.70;7.15;;;;;;;21.04;75.10;100445.09;5031181;28;20029;-47
2023/07/01 05:08:31;;;;;;;8.70;7.00;;;;;;;21.01;74.97;100445.19;5030100;28;20114;-46
2023/07/01 05:10:56;;;;;;;9.20;7.05;;;;;;;21.01;75.01;100450.47;5030762;28;20511;-44
2023/07/01 05:13:22;;;;;;;8.70;6.88;;;;;;;21.09;75.26;100444.91;5030072;28;20399;-44
2023/07/01 05:15:47;;;;;;;9.20;7.28;;;;;;;20.78;76.49;100450.44;5030499;28;20484;-44
2023/07/01 05:18:12;;;;;;;8.95;6.70;;;;;;;21.00;75.39;100441.66;5029924;28;20037;-47
2023/07/01 05:20:38;;;;;;;9.68;6.47;;;;;;;21.15;74.69;100442.94;5029899;28;20037;-45
2023/07/01 05:23:03;;;;;;;8.40;5.88;;;;;;;20.96;76.10;100439.19;5029443;28;20060;-48
2023/07/01 05:25:28;;;;;;;8.32;6.57;;;;;;;21.13;75.48;100435.91;5030484;28;20037;-49
2023/07/01 05:27:54;;;;;;;8.00;6.32;;;;;;;21.20;75.32;100437.44;5029817;28;20038;-47
2023/07/01 05:30:19;;;;;;;9.25;6.68;;;;;;;21.11;75.82;100432.44;5029646;28;20048;-46
2023/07/01 05:32:44;;;;;;;8.57;6.30;;;;;;;21.14;75.57;100437.66;5030222;28;20045;-43
2023/07/01 05:35:10;;;;;;;9.60;6.40;;;;;;;20.81;77.31;100437.94;5030170;28;20036;-45
2023/07/01 05:37:35;;;;;;;8.10;5.97;;;;;;;20.99;76.47;100442.56;5027909;28;20046;-49
2023/07/01 05:40:00;;;;;;;8.38;6.18;;;;;;;21.12;75.84;100431.53;5029037;28;20462;-43
2023/07/01 05:42:26;;;;;;;7.63;5.85;;;;;;;21.18;75.67;100432.19;5029669;28;20029;-43
2023/07/01 05:44:51;;;;;;;8.25;5.80;;;;;;;21.22;75.46;100430.31;5030133;28;20088;-46
2023/07/01 05:47:16;;;;;;;7.32;5.80;;;;;;;21.25;75.45;100432.84;5029404;28;20072;-45
2023/07/01 05:49:41;;;;;;;7.40;5.75;;;;;;;21.51;74.87;100434.50;5029914;28;20033;-49
2023/07/01 05:52:07;;;;;;;6.80;5.68;;;;;;;21.11;75.83;100438.59;5030113;28;20041;-50
2023/07/01 05:54:32;;;;;;;7.97;5.63;;;;;;;21.32;75.14;100435.22;5029237;28;20095;-47
2023/07/01 05:56:57;;;;;;;7.72;5.65;;;;;;;21.27;75.25;100433.66;5029437;28;20037;-44
2023/07/01 05:59:23;;;;;;;6.53;5.35;;;;;;;21.37;75.29;100433.25;5028205;28;20030;-46
2023/07/01 06:01:48;;;;;;;6.97;5.55;;;;;;;21.41;75.18;100436.63;5030080;28;20060;-46
2023/07/01 06:04:14;;;;;;;7.18;5.53;;;;;;;21.33;75.57;100430.78;5029997;28;20044;-47
2023/07/01 06:06:39;;;;;;;7.30;5.50;;;;;;;21.28;75.97;100430.94;5029402;28;20116;-44
2023/07/01 06:09:08;;;;;;;6.65;5.30;;;;;;;21.52;75.37;100425.63;5029128;28;20103;-49
2023/07/01 06:11:33;;;;;;;6.50;5.15;;;;;;;21.30;75.71;100428.22;5027847;28;20088;-46
2023/07/01 06:13:59;;;;;;;7.00;5.22;;;;;;;21.53;75.09;100427.38;5029523;28;20504;-47
2023/07/01 06:16:24;;;;;;;5.85;4.70;;;;;;;21.43;75.47;100435.66;5028931;28;20143;-44
2023/07/01 06:18:49;;;;;;;6.57;5.10;;;;;;;21.51;75.15;100432.72;5029126;28;20442;-51
2023/07/01 06:21:15;;;;;;;6.97;4.72;;;;;;;21.79;74.61;100435.16;5029376;28;20045;-45
2023/07/01 06:23:40;;;;;;;7.05;4.63;;;;;;;21.84;74.31;100433.16;5028751;28;20044;-45
2023/07/01 06:26:06;;;;;;;5.70;4.50;;;;;;;21.52;75.43;100434.44;5029717;28;20439;-48
2023/07/01 06:28:31;;;;;;;5.35;4.35;;;;;;;21.84;74.48;100434.03;5028852;28;20410;-45
2023/07/01 06:30:57;;;;;;;5.75;4.15;;;;;;;21.67;74.67;100430.31;5029648;28;20049;-45
2023/07/01 06:33:22;;;;;;;5.35;4.10;;;;;;;21.73;75.05;100435.38;5029259;28;20034;-50
2023/07/01 06:35:48;;;;;;;4.85;3.70;;;;;;;21.82;74.54;100427.94;5032795;28;20116;-48
2023/07/01 06:38:13;;;;;;;6.07;3.78;;;;;;;22.02;74.30;100432.47;5032921;28;20034;-43
2023/07/01 06:40:38;;;;;;;4.53;3.60;;;;;;;21.77;74.66;100424.59;5033350;28;20036;-43
2023/07/01 06:43:04;;;;;;;4.57;3.40;;;;;;;21.88;74.76;100432.16;5033106;28;20084;-48
2023/07/01 06:45:30;;;;;;;4.63;3.45;;;;;;;22.16;74.00;100432.78;5033026;28;20518;-45
2023/07/01 06:47:56;;;;;;;5.28;3.20;;;;;;;22.37;74.00;100423.06;5033654;28;20442;-46
2023/07/01 06:50:21;;;;;;;3.75;2.75;;;;;;;22.28;74.08;100439.38;5033768;28;20030;-46
2023/07/01 06:52:47;;;;;;;4.03;2.80;;;;;;;22.20;73.75;100425.56;5034389;28;20140;-45
2023/07/01 06:55:15;;;;;;;4.00;2.90;;;;;;;22.05;74.19;100424.38;5033665;28;20033;-44
2023/07/01 06:57:41;;;;;;;2.85;2.47;;;;;;;21.93;74.26;100422.19;5032615;28;20496;-49
2023/07/01 07:00:11;;;;;;;4.55;2.90;;;;;;;21.96;74.78;100422.09;5033358;28;20404;-47
2023/07/01 07:02:37;;;;;;;4.25;2.70;;;;;;;22.08;75.29;100418.94;5033497;28;20072;-45
2023/07/01 07:05:04;;;;;;;4.05;2.53;;;;;;;22.42;74.18;100420.19;5034568;28;20399;-47
2023/07/01 07:07:29;;;;;;;3.22;2.60;;;;;;;22.36;73.80;100417.81;5033427;28;20030;-48
2023/07/01 07:09:55;;;;;;;3.03;2.33;;;;;;;22.08;74.70;100416.28;5033351;28;20048;-45
2023/07/01 07:12:20;;;;;;;3.50;2.20;;;;;;;22.19;74.06;100423.84;5033977;28;20087;-45
2023/07/01 07:14:46;;;;;;;3.28;2.25;;;;;;;22.44;73.70;100411.25;5034707;28;20037;-46
2023/07/01 07:17:11;;;;;;;2.33;1.92;;;;;;;22.45;73.77;100414.75;5032237;28;20129;-45
2023/07/01 07:19:37;;;;;;;1.77;1.45;;;;;;;22.19;73.96;100416.72;5032278;28;20496;-44
2023/07/01 07:22:03;;;;;;;3.20;1.63;;;;;;;22.07;74.43;100409.28;5033067;28;20030;-46
2023/07/01 07:24:28;;;;;;;2.05;1.70;;;;;;;22.25;73.79;100415.63;5032039;28;20440;-45
2023/07/01 07:26:59;;;;;;;2.00;1.58;;;;;;;22.38;73.17;100413.31;5032792;28;20025;-47
2023/07/01 07:29:24;;;;;;;1.75;1.50;;;;;;;22.40;73.49;100409.63;5032102;28;20044;-48
2023/07/01 07:31:51;;;;;;;1.70;1.55;;;;;;;22.17;74.35;100415.06;5032463;28;20025;-46
2023/07/01 07:34:16;;;;;;;1.70;1.40;;;;;;;22.18;74.15;100415.00;5032296;28;20044;-46
2023/07/01 07:36:42;;;;;;;2.20;1.60;;;;;;;22.11;74.56;100423.28;5031735;28;20041;-43
2023/07/01 07:39:09;;;;;;;2.05;1.65;;;;;;;22.17;75.19;100415.06;5032059;28;20041;-45
2023/07/01 07:41:34;;;;;;;2.15;1.60;;;;;;;22.23;74.98;100413.00;5031923;28;20340;-47
2023/07/01 07:44:00;;;;;;;1.60;1.45;;;;;;;22.16;74.93;100421.28;5032352;28;20706;-47
2023/07/01 07:46:25;;;;;;;1.40;1.30;;;;;;;22.33;74.57;100413.47;5031951;28;20041;-47
2023/07/01 07:48:50;;;;;;;1.30;1.20;;;;;;;22.18;75.67;100422.09;5032033;28;20033;-45
2023/07/01 07:51:15;;;;;;;1.92;1.20;;;;;;;22.48;74.56;100411.97;5032223;28;20041;-45
2023/07/01 07:53:41;;;;;;;3.30;1.10;;;;;;;22.56;74.50;100413.38;5031803;28;20033;-48
2023/07/01 07:56:07;;;;;;;1.00;0.90;;;;;;;22.50;74.27;100411.00;5032273;28;20121;-46
2023/07/01 07:58:32;;;;;;;1.27;0.80;;;;;;;21.98;76.26;100417.59;5031536;28;20033;-46
2023/07/01 08:00:57;;;;;;;1.70;0.70;;;;;;;22.43;75.13;100417.50;5032160;28;20080;-48
2023/07/01 08:03:22;;;;;;;1.13;0.70;;;;;;;22.30;75.29;100412.75;5031332;28;20107;-45
2023/07/01 08:05:49;;;;;;;1.40;0.80;;;;;;;22.47;74.64;100408.44;5031878;28;20042;-46
2023/07/01 08:08:15;;;;;;;1.02;0.70;;;;;;;22.58;74.94;100408.84;5031645;28;20091;-46
2023/07/01 08:10:45;;;;;;;0.70;0.45;;;;;;;22.88;74.46;100404.00;5031359;28;20033;-43
2023/07/01 08:13:11;;;;;;;1.48;0.50;;;;;;;22.92;73.81;100407.41;5031703;28;20029;-47
2023/07/01 08:15:36;;;;;;;0.60;0.50;;;;;;;22.92;73.86;100410.94;5031069;28;20030;-46
2023/07/01 08:18:02;;;;;;;1.50;0.50;;;;;;;23.02;73.99;100411.38;5031251;28;20033;-46
2023/07/01 08:20:27;;;;;;;0.85;0.50;;;;;;;22.99;73.91;100414.19;5031083;28;20170;-43
2023/07/01 08:22:53;;;;;;;1.25;0.40;;;;;;;22.95;73.91;100410.78;5031194;28;20116;-46
2023/07/01 08:25:18;;;;;;;1.38;0.50;;;;;;;22.47;75.43;100418.22;5030991;28;20084;-44
2023/07/01 08:27:43;;;;;;;0.57;0.40;;;;;;;22.66;74.84;100409.38;5031020;28;20114;-45
2023/07/01 08:30:09;;;;;;;0.93;0.55;;;;;;;22.58;75.47;100410.63;5031292;28;20292;-50
2023/07/01 08:32:35;;;;;;;0.90;0.50;;;;;;;22.48;76.28;100410.19;5030624;28;20087;-46
2023/07/01 08:35:00;;;;;;;1.67;0.57;;;;;;;22.49;76.00;100406.59;5031527;28;20132;-48
2023/07/01 08:37:25;;;;;;;1.55;0.50;;;;;;;22.07;77.04;100416.38;5030238;28;20124;-49
2023/07/01 08:39:51;;;;;;;0.65;0.40;;;;;;;22.03;76.67;100420.94;5030829;28;20053;-47
2023/07/01 08:42:19;;;;;;;1.83;0.40;;;;;;;21.92;78.25;100411.63;5031185;28;20443;-45
2023/07/01 08:44:46;;;;;;;1.50;0.52;;;;;;;21.86;78.14;100412.75;5030579;28;20030;-47
2023/07/01 08:47:12;;;;;;;1.98;0.70;;;;;;;21.42;79.56;100422.44;5030220;28;20040;-43
2023/07/01 08:49:40;;;;;;;1.40;0.70;;;;;;;22.14;77.29;100420.50;5030406;28;20484;-45
2023/07/01 08:52:09;;;;;;;1.35;0.70;;;;;;;22.30;77.98;100416.28;5031204;28;20044;-44
2023/07/01 08:54:36;;;;;;;3.28;0.90;;;;;;;22.26;77.59;100418.19;5030360;28;20049;-46
2023/07/01 08:57:01;;;;;;;1.75;0.95;;;;;;;22.50;76.24;100416.31;5030371;28;20043;-46
2023/07/01 08:59:28;;;;;;;1.77;0.90;;;;;;;22.66;76.35;100408.53;5029060;28;20407;-43
2023/07/01 09:01:56;;;;;;;1.73;0.82;;;;;;;22.56;75.93;100415.19;5030527;28;20029;-45
2023/07/01 09:04:21;;;;;;;1.75;0.98;;;;;;;22.48;76.73;100411.97;5030184;28;20033;-44
2023/07/01 09:06:47;;;;;;;2.72;1.10;;;;;;;22.71;77.00;100416.28;5031058;28;20060;-44
2023/07/01 09:09:12;;;;;;;2.38;1.17;;;;;;;22.66;76.79;100417.34;5030236;28;20041;-45
2023/07/01 09:11:38;;;;;;;3.35;1.33;;;;;;;22.71;76.48;100414.50;5030061;28;20447;-47
2023/07/01 09:14:03;;;;;;;2.53;1.10;;;;;;;22.36;78.12;100418.66;5030595;28;20033;-46
2023/07/01 09:16:38;;;;;;;4.40;1.40;;;;;;;22.69;76.42;100426.97;5029765;28;20492;-47
2023/07/01 09:19:04;;;;;;;2.67;1.30;;;;;;;22.61;77.19;100427.31;5029818;28;20120;-47
2023/07/01 09:21:32;;;;;;;2.63;1.60;;;;;;;22.39;78.15;100423.84;5029933;28;20112;-45
2023/07/01 09:23:58;;;;;;;2.53;1.70;;;;;;;22.89;77.08;100423.47;5030346;28;20030;-45
2023/07/01 09:26:23;;;;;;;4.07;2.00;;;;;;;22.50;76.39;100421.63;5030150;28;20048;-46
2023/07/01 09:28:53;;;;;;;3.38;2.10;;;;;;;22.49;76.34;100417.22;5030167;28;20037;-48
2023/07/01 09:31:18;;;;;;;4.90;2.40;;;;;;;23.03;75.01;100418.41;5030050;28;20171;-47
2023/07/01 09:34:00;;;;;;;5.65;2.42;;;;;;;22.23;76.00;100431.59;5030491;28;20112;-42
2023/07/01 09:36:27;;;;;;;7.93;2.90;;;;;;;22.11;77.72;100433.91;5030144;28;20053;-47
2023/07/01 09:38:53;;;;;;;5.07;2.63;;;;;;;22.64;75.58;100427.19;5028286;28;20033;-47
2023/07/01 09:41:23;;;;;;;5.85;3.00;;;;;;;22.55;75.58;100418.75;5029465;28;20034;-46
2023/07/01 09:43:49;;;;;;;7.63;3.05;;;;;;;22.67;75.06;100427.06;5029849;28;20175;-49
2023/07/01 09:46:14;;;;;;;6.18;2.63;;;;;;;22.73;74.93;100419.78;5030121;28;20124;-50
2023/07/01 09:48:51;;;;;;;6.47;2.83;;;;;;;22.44;76.17;100415.69;5028885;28;20025;-45
2023/07/01 09:51:17;;;;;;;4.45;2.50;;;;;;;22.51;76.03;100425.97;5029641;28;20087;-48
2023/07/01 09:53:42;;;;;;;6.95;2.50;;;;;;;22.67;75.69;100421.75;5029821;28;20041;-49
2023/07/01 09:56:08;;;;;;;5.63;2.60;;;;;;;22.48;74.81;100419.94;5029748;28;20033;-45
2023/07/01 09:58:34;;;;;;;6.15;2.80;;;;;;;22.50;74.44;100434.03;5028772;28;20041;-46
2023/07/01 10:01:00;;;;;;;6.60;2.67;;;;;;;21.84;76.66;100426.06;5029945;28;20063;-46
2023/07/01 10:03:26;;;;;;;6.93;2.60;;;;;;;21.97;77.23;100429.13;5029363;28;20514;-43
2023/07/01 10:05:52;;;;;;;5.57;2.75;;;;;;;22.03;76.46;100423.56;5029913;28;20029;-51
2023/07/01 10:08:17;;;;;;;7.65;2.88;;;;;;;22.17;76.47;100429.19;5029328;28;20037;-44
2023/07/01 10:10:43;;;;;;;5.82;2.78;;;;;;;21.88;76.20;100433.94;5029614;28;20380;-47
2023/07/01 10:13:10;;;;;;;7.05;2.90;;;;;;;22.00;77.87;100430.81;5029680;28;20039;-45
2023/07/01 10:15:38;;;;;;;6.20;2.80;;;;;;;22.30;76.61;100426.91;5027637;28;20068;-46
2023/07/01 10:18:20;;;;;;;6.25;2.80;;;;;;;22.29;76.91;100429.59;5029016;28;20056;-47
2023/07/01 10:20:46;;;;;;;8.93;2.97;;;;;;;22.07;77.89;100424.34;5029260;28;20053;-50
2023/07/01 10:23:11;;;;;;;7.25;2.58;;;;;;;21.91;77.71;100426.69;5029547;28;20064;-45
2023/07/01 10:25:38;;;;;;;6.63;2.50;;;;;;;22.12;76.82;100430.31;5028919;28;20117;-45
2023/07/01 10:28:11;;;;;;;7.63;2.90;;;;;;;22.14;77.61;100437.28;5029448;28;20032;-48
2023/07/01 10:30:45;;;;;;;7.00;2.40;;;;;;;22.35;76.42;100426.69;5030481;28;20061;-45
2023/07/01 10:33:33;;;;;;;6.43;2.63;;;;;;;22.46;75.75;100435.06;5031616;28;20034;-50
2023/07/01 10:36:03;;;;;;;7.40;2.60;;;;;;;22.60;76.45;100436.22;5031260;28;20049;-43
2023/07/01 10:38:31;;;;;;;6.07;2.65;;;;;;;22.49;75.54;100441.13;5030786;28;20037;-51
2023/07/01 10:40:57;;;;;;;7.30;2.47;;;;;;;22.23;75.58;100441.34;5032971;28;20030;-45
2023/07/01 10:43:26;;;;;;;7.07;2.72;;;;;;;22.47;76.58;100439.47;5029781;28;20040;-49
2023/07/01 10:46:08;;;;;;;9.52;2.70;;;;;;;22.60;75.44;100430.91;5029286;28;20035;-43
2023/07/01 10:48:43;;;;;;;5.47;2.40;;;;;;;22.99;74.40;100433.63;5028504;28;20033;-48
2023/07/01 10:51:10;;;;;;;5.72;2.45;;;;;;;23.37;71.85;100436.34;5029439;28;20309;-45
2023/07/01 10:54:06;;;;;;;5.82;2.70;;;;;;;23.02;72.37;100422.88;5029026;28;20050;-47
2023/07/01 10:56:34;;;;;;;6.60;2.78;;;;;;;22.75;72.85;100436.53;5028750;28;20506;-44
2023/07/01 10:59:27;;;;;;;8.68;3.17;;;;;;;22.81;73.72;100434.44;5028901;28;20373;-50
2023/07/01 11:01:57;;;;;;;6.38;2.85;;;;;;;22.62;72.58;100431.72;5029154;28;20033;-43
2023/07/01 11:04:24;;;;;;;7.63;2.85;;;;;;;22.49;74.76;100441.13;5028692;28;20129;-44
2023/07/01 11:06:54;;;;;;;6.55;3.10;;;;;;;22.62;74.54;100442.34;5029934;28;20038;-44
2023/07/01 11:09:27;;;;;;;5.88;2.85;;;;;;;22.61;72.93;100445.94;5027203;28;20488;-44
2023/07/01 11:11:53;;;;;;;;;;;;;;;22.50;73.99;100442.88;5029632;28;20056;-44
2023/07/01 11:14:19;;;;;;;7.07;2.80;;;;;;;22.54;73.94;100441.81;5028527;28;19913;-49
2023/07/01 11:16:44;;;;;;;4.78;2.60;;;;;;;22.32;73.69;100441.00;5029209;28;20377;-45
2023/07/01 11:19:14;;;;;;;6.45;2.65;;;;;;;22.58;74.43;100445.19;5028561;28;20037;-44
2023/07/01 11:21:40;;;;;;;8.57;2.70;;;;;;;22.59;74.47;100444.25;5029666;28;20515;-45